Time;durP1;ratioP1;P1;durP2;ratioP2;P2;SDS_P1;SDS_P2;PMS_P1;PMS_P2;Temp;Humidity;BMP_temperature;BMP_pressure;BME280_temperature;BME280_humidity;BME280_pressure;Samples;Min_cycle;Max_cycle;Signal;HPM_P1;HPM_P2
2022/11/18 00:02:10;;;;;;;7.95;5.18;;;7.30;99.90;;;;;;7404923;19;19918;-63
2022/11/18 00:04:39;;;;;;;9.70;6.05;;;7.30;99.90;;;;;;7404049;19;19928;-63
2022/11/18 00:07:08;;;;;;;9.40;5.50;;;7.30;99.90;;;;;;7404963;19;19946;-63
2022/11/18 00:09:37;;;;;;;10.65;5.47;;;7.40;99.90;;;;;;7402734;19;19922;-63
2022/11/18 00:14:49;;;;;;;10.20;6.10;;;7.40;99.90;;;;;;7406659;19;19929;-63
2022/11/18 00:17:21;;;;;;;10.25;5.30;;;7.30;99.90;;;;;;7405398;19;19919;-63
2022/11/18 00:19:50;;;;;;;11.10;5.55;;;7.30;99.90;;;;;;7401261;19;19940;-63
2022/11/18 00:22:19;;;;;;;11.23;6.32;;;7.30;99.90;;;;;;7407688;19;19932;-63
2022/11/18 00:24:48;;;;;;;12.82;5.40;;;7.30;99.90;;;;;;7403408;19;19915;-63
2022/11/18 00:27:17;;;;;;;12.73;6.60;;;7.30;99.90;;;;;;7405146;19;19923;-63
2022/11/18 00:29:46;;;;;;;12.40;7.35;;;7.30;99.90;;;;;;7406054;19;20365;-63
2022/11/18 00:32:15;;;;;;;12.82;7.65;;;7.40;99.90;;;;;;7406893;19;19989;-63
2022/11/18 00:34:47;;;;;;;14.45;7.90;;;7.30;99.90;;;;;;7407064;19;19932;-63
2022/11/18 00:37:16;;;;;;;12.88;6.63;;;7.30;99.90;;;;;;7403516;19;19928;-63
2022/11/18 00:39:45;;;;;;;13.75;7.88;;;7.30;99.90;;;;;;7401563;19;20013;-63
2022/11/18 00:44:56;;;;;;;14.02;7.82;;;7.30;99.90;;;;;;7403869;19;19922;-63
2022/11/18 00:47:26;;;;;;;15.45;7.55;;;7.20;99.90;;;;;;7406523;19;19919;-63
2022/11/18 00:49:57;;;;;;;11.95;7.20;;;7.20;99.90;;;;;;7403037;19;19918;-63
2022/11/18 00:52:26;;;;;;;13.50;6.55;;;7.30;99.90;;;;;;7402738;19;19915;-63
2022/11/18 00:54:55;;;;;;;14.88;7.53;;;7.40;99.90;;;;;;7402560;19;19942;-63
2022/11/18 00:57:24;;;;;;;14.60;7.35;;;7.30;99.90;;;;;;7401081;19;19926;-63
2022/11/18 00:59:53;;;;;;;13.73;7.78;;;7.30;99.90;;;;;;7401897;19;19950;-63
2022/11/18 01:02:22;;;;;;;12.05;7.15;;;7.20;99.90;;;;;;7402162;19;20359;-63
2022/11/18 01:04:51;;;;;;;13.20;7.65;;;7.20;99.90;;;;;;7404553;19;19939;-63
2022/11/18 01:07:23;;;;;;;11.07;6.15;;;7.20;99.90;;;;;;7402215;19;20357;-63
2022/11/18 01:09:52;;;;;;;13.73;8.18;;;7.20;99.90;;;;;;7404953;19;20344;-63
2022/11/18 01:15:03;;;;;;;12.32;6.85;;;7.20;99.90;;;;;;7402264;19;20340;-63
2022/11/18 01:17:34;;;;;;;13.38;6.32;;;7.20;99.90;;;;;;7401675;19;19926;-63
2022/11/18 01:20:03;;;;;;;13.02;7.03;;;7.20;99.90;;;;;;7404367;19;20351;-63
2022/11/18 01:22:34;;;;;;;16.63;7.93;;;7.20;99.90;;;;;;7411645;19;19923;-63
2022/11/18 01:25:04;;;;;;;15.05;8.48;;;7.20;99.90;;;;;;7408444;19;19965;-63
2022/11/18 01:27:33;;;;;;;17.85;7.20;;;7.20;99.90;;;;;;7410207;19;20034;-63
2022/11/18 01:30:02;;;;;;;14.60;7.55;;;7.20;99.90;;;;;;7409262;19;20264;-63
2022/11/18 01:32:31;;;;;;;16.20;7.70;;;7.20;99.90;;;;;;7407913;19;19922;-63
2022/11/18 01:35:00;;;;;;;16.90;8.52;;;7.20;99.90;;;;;;7407188;19;19918;-63
2022/11/18 01:37:29;;;;;;;15.98;8.32;;;7.20;99.90;;;;;;7408172;19;19946;-63
2022/11/18 01:40:01;;;;;;;15.32;8.25;;;7.20;99.90;;;;;;7406831;19;19986;-63
2022/11/18 01:42:30;;;;;;;14.75;8.00;;;7.20;99.90;;;;;;7409365;19;19990;-63
2022/11/18 01:45:03;;;;;;;14.93;7.97;;;7.10;99.90;;;;;;7409148;19;19994;-63
2022/11/18 01:47:37;;;;;;;15.85;7.30;;;7.10;99.90;;;;;;7410187;19;19922;-63
2022/11/18 01:50:08;;;;;;;15.15;7.32;;;7.10;99.90;;;;;;7406859;19;19915;-63
2022/11/18 01:52:38;;;;;;;13.93;7.30;;;7.10;99.90;;;;;;7407150;19;20359;-63
2022/11/18 01:55:18;;;;;;;13.00;7.70;;;7.10;99.90;;;;;;7407689;19;19926;-63
2022/11/18 01:57:51;;;;;;;14.15;7.00;;;7.10;99.90;;;;;;7405724;19;19939;-63
2022/11/18 02:00:20;;;;;;;14.57;6.93;;;7.10;99.90;;;;;;7405796;19;19929;-63
2022/11/18 02:02:50;;;;;;;15.18;7.15;;;7.10;99.90;;;;;;7407835;19;19919;-62
2022/11/18 02:05:20;;;;;;;14.35;7.82;;;7.10;99.90;;;;;;7408793;19;19915;-63
2022/11/18 02:07:49;;;;;;;14.57;7.10;;;7.10;99.90;;;;;;7410109;19;19918;-63
2022/11/18 02:10:25;;;;;;;14.60;6.95;;;7.10;99.90;;;;;;7408350;19;19926;-63
2022/11/18 02:12:56;;;;;;;12.68;6.38;;;7.10;99.90;;;;;;7408875;19;19922;-63
2022/11/18 02:15:34;;;;;;;14.80;6.97;;;7.10;99.90;;;;;;7409418;19;19918;-63
2022/11/18 02:18:11;;;;;;;11.77;6.93;;;7.10;99.90;;;;;;7407564;19;19914;-63
2022/11/18 02:20:43;;;;;;;15.18;6.85;;;7.10;99.90;;;;;;7407080;19;20373;-63
2022/11/18 02:23:54;;;;;;;11.93;6.43;;;7.10;99.90;;;;;;7409326;19;19929;-63
2022/11/18 02:27:08;;;;;;;15.85;6.93;;;7.10;99.90;;;;;;7406409;19;20356;-63
2022/11/18 02:29:46;;;;;;;14.02;7.40;;;7.10;99.90;;;;;;7406930;19;20002;-63
2022/11/18 02:32:20;;;;;;;12.82;6.22;;;7.10;99.90;;;;;;7406094;19;19940;-63
2022/11/18 02:34:53;;;;;;;14.52;6.40;;;7.00;99.90;;;;;;7406547;19;19918;-63
2022/11/18 02:37:28;;;;;;;12.27;6.32;;;7.10;99.90;;;;;;7406719;19;19929;-63
2022/11/18 02:40:02;;;;;;;12.02;6.30;;;7.10;99.90;;;;;;7406637;19;19919;-63
2022/11/18 02:42:35;;;;;;;11.13;6.05;;;7.10;99.90;;;;;;7408736;19;19926;-63
2022/11/18 02:45:10;;;;;;;13.68;6.70;;;7.10;99.90;;;;;;7404388;19;19918;-63
2022/11/18 02:47:41;;;;;;;13.07;6.18;;;7.10;99.90;;;;;;7409033;19;19915;-63
2022/11/18 02:50:14;;;;;;;13.93;6.05;;;7.10;99.90;;;;;;7405966;19;20343;-63
2022/11/18 02:52:46;;;;;;;13.50;6.45;;;7.10;99.90;;;;;;7405959;19;19958;-63
2022/11/18 02:55:17;;;;;;;13.18;6.30;;;7.10;99.90;;;;;;7405891;19;19919;-63
2022/11/18 02:57:47;;;;;;;13.57;6.80;;;7.10;99.90;;;;;;7404583;19;20019;-63
2022/11/18 03:00:19;;;;;;;13.38;6.47;;;7.00;99.90;;;;;;7404137;19;19915;-63
2022/11/18 03:02:50;;;;;;;13.85;6.20;;;7.00;99.90;;;;;;7406835;19;19942;-63
2022/11/18 03:05:26;;;;;;;12.50;5.90;;;7.00;99.90;;;;;;7406517;19;19915;-63
2022/11/18 03:08:03;;;;;;;14.85;5.72;;;6.90;99.90;;;;;;7406791;19;20341;-63
2022/11/18 03:10:43;;;;;;;12.20;6.00;;;6.90;99.90;;;;;;7405278;19;19970;-63
2022/11/18 03:13:20;;;;;;;12.73;5.53;;;7.00;99.90;;;;;;7405450;19;20269;-63
2022/11/18 03:15:59;;;;;;;13.70;6.38;;;7.00;99.90;;;;;;7407360;19;19918;-63
2022/11/18 03:18:35;;;;;;;12.25;5.72;;;7.00;99.90;;;;;;7407725;19;20255;-63
2022/11/18 03:21:09;;;;;;;12.07;5.90;;;7.00;99.90;;;;;;7408127;19;19974;-63
2022/11/18 03:23:42;;;;;;;12.35;6.45;;;7.00;99.90;;;;;;7408445;19;19915;-63
2022/11/18 03:26:15;;;;;;;11.52;5.20;;;7.10;99.90;;;;;;7404786;19;19951;-63
2022/11/18 03:28:48;;;;;;;11.02;5.82;;;7.10;99.90;;;;;;7405032;19;19950;-64
2022/11/18 03:31:24;;;;;;;11.05;5.45;;;7.00;99.90;;;;;;7403725;19;20260;-63
2022/11/18 03:33:58;;;;;;;12.80;5.90;;;7.00;99.90;;;;;;7404771;19;20325;-64
2022/11/18 03:36:34;;;;;;;10.13;5.28;;;6.90;99.90;;;;;;7404678;19;19933;-63
2022/11/18 03:39:06;;;;;;;9.65;5.57;;;6.90;99.90;;;;;;7409117;19;19986;-63
2022/11/18 03:41:42;;;;;;;9.82;4.95;;;6.90;99.90;;;;;;7403355;19;19922;-63
2022/11/18 03:44:15;;;;;;;10.20;4.90;;;6.90;99.90;;;;;;7402738;19;19914;-63
2022/11/18 03:46:51;;;;;;;10.75;4.82;;;6.90;99.90;;;;;;7404797;19;19919;-63
2022/11/18 03:49:28;;;;;;;9.15;4.20;;;6.90;99.90;;;;;;7405208;19;19915;-62
2022/11/18 03:52:03;;;;;;;11.57;4.85;;;6.90;99.90;;;;;;7404915;19;19997;-63
2022/11/18 03:54:35;;;;;;;10.30;5.13;;;6.90;99.90;;;;;;7406048;19;19925;-63
2022/11/18 03:57:08;;;;;;;8.73;4.88;;;6.90;99.90;;;;;;7403656;19;19926;-63
2022/11/18 03:59:39;;;;;;;12.80;5.32;;;6.90;99.90;;;;;;7403554;19;19927;-63
2022/11/18 04:02:15;;;;;;;9.88;4.75;;;6.90;99.90;;;;;;7404610;19;19918;-63
2022/11/18 04:04:47;;;;;;;11.15;5.70;;;6.90;99.90;;;;;;7405868;19;19918;-64
2022/11/18 04:07:25;;;;;;;11.20;5.38;;;6.90;99.90;;;;;;7405099;19;19926;-63
2022/11/18 04:09:59;;;;;;;9.57;4.57;;;6.90;99.90;;;;;;7404393;19;19945;-63
2022/11/18 04:12:32;;;;;;;10.77;5.45;;;6.90;99.90;;;;;;7406795;19;19925;-63
2022/11/18 04:15:01;;;;;;;11.23;5.40;;;6.90;99.90;;;;;;7403750;19;20255;-63
2022/11/18 04:17:33;;;;;;;10.43;5.22;;;6.90;99.90;;;;;;7408493;19;19919;-63
2022/11/18 04:20:02;;;;;;;10.15;5.32;;;6.90;99.90;;;;;;7402754;19;20040;-63
2022/11/18 04:22:31;;;;;;;10.68;5.70;;;6.90;99.90;;;;;;7405631;19;19922;-63
2022/11/18 04:25:00;;;;;;;10.85;5.13;;;6.90;99.90;;;;;;7403485;19;19915;-63
2022/11/18 04:27:29;;;;;;;11.77;5.35;;;6.90;99.90;;;;;;7403329;19;20312;-63
2022/11/18 04:29:58;;;;;;;10.60;4.88;;;6.90;99.90;;;;;;7404293;19;19919;-63
2022/11/18 04:32:27;;;;;;;11.80;5.30;;;6.80;99.90;;;;;;7404281;19;20433;-63
2022/11/18 04:34:59;;;;;;;10.52;5.47;;;6.90;99.90;;;;;;7405813;19;21857;-63
2022/11/18 04:37:27;;;;;;;10.70;4.65;;;6.90;99.90;;;;;;7405012;19;19977;-63
2022/11/18 04:39:57;;;;;;;12.60;4.88;;;6.90;99.90;;;;;;7405916;19;19915;-63
2022/11/18 04:42:26;;;;;;;10.80;5.20;;;6.90;99.90;;;;;;7403072;19;19938;-63
2022/11/18 04:44:55;;;;;;;12.60;5.68;;;6.80;99.90;;;;;;7403015;19;19922;-63
2022/11/18 04:47:24;;;;;;;10.57;4.70;;;6.80;99.90;;;;;;7404693;19;19923;-64
2022/11/18 04:49:53;;;;;;;12.55;4.97;;;6.80;99.90;;;;;;7403059;19;19982;-63
2022/11/18 04:52:25;;;;;;;12.05;5.28;;;6.80;99.90;;;;;;7402539;19;19918;-63
2022/11/18 04:54:55;;;;;;;11.60;5.25;;;6.80;99.90;;;;;;7409578;19;20269;-63
2022/11/18 04:57:24;;;;;;;10.82;5.38;;;6.80;99.90;;;;;;7408385;19;19929;-63
2022/11/18 04:59:53;;;;;;;11.57;4.88;;;6.80;99.90;;;;;;7408459;19;19918;-63
2022/11/18 05:02:22;;;;;;;11.95;5.32;;;6.80;99.90;;;;;;7409539;19;19918;-63
2022/11/18 05:04:51;;;;;;;13.02;5.30;;;6.80;99.90;;;;;;7410287;19;20284;-63
2022/11/18 05:07:20;;;;;;;10.93;5.70;;;6.80;99.90;;;;;;7410268;19;19911;-63
2022/11/18 05:09:51;;;;;;;14.18;7.00;;;6.80;99.90;;;;;;7408864;19;19935;-63
2022/11/18 05:15:02;;;;;;;15.98;6.38;;;6.80;99.90;;;;;;7408597;19;19914;-63
2022/11/18 05:17:31;;;;;;;15.52;5.88;;;6.70;99.90;;;;;;7408760;19;19917;-63
2022/11/18 05:20:00;;;;;;;11.65;5.72;;;6.80;99.90;;;;;;7408126;19;19918;-64
2022/11/18 05:22:29;;;;;;;13.52;6.30;;;6.80;99.90;;;;;;7408176;19;19938;-63
2022/11/18 05:25:00;;;;;;;15.93;5.63;;;6.80;99.90;;;;;;7408458;19;20309;-63
2022/11/18 05:27:29;;;;;;;13.77;5.63;;;6.80;99.90;;;;;;7411537;19;19919;-64
2022/11/18 05:29:58;;;;;;;13.85;6.35;;;6.80;99.90;;;;;;7408340;19;19930;-62
2022/11/18 05:32:28;;;;;;;15.30;7.43;;;6.80;99.90;;;;;;7407707;19;19980;-62
2022/11/18 05:34:57;;;;;;;14.50;6.35;;;6.70;99.90;;;;;;7408125;19;19921;-62
2022/11/18 05:37:26;;;;;;;16.02;7.28;;;6.70;99.90;;;;;;7409349;19;19923;-62
2022/11/18 05:39:55;;;;;;;14.90;6.78;;;6.70;99.90;;;;;;7407439;19;19914;-63
2022/11/18 05:45:09;;;;;;;16.80;7.82;;;6.70;99.90;;;;;;7407363;19;19918;-63
2022/11/18 05:47:58;;;;;;;15.73;6.90;;;6.70;99.90;;;;;;7410106;19;19918;-63
2022/11/18 05:50:27;;;;;;;15.07;7.85;;;6.80;99.90;;;;;;7407621;19;19914;-63
2022/11/18 05:52:56;;;;;;;15.85;6.93;;;6.80;99.90;;;;;;7407499;19;19918;-63
2022/11/18 05:55:29;;;;;;;17.58;7.43;;;6.80;99.90;;;;;;7410306;19;19922;-63
2022/11/18 05:58:00;;;;;;;16.33;6.85;;;6.70;99.90;;;;;;7407993;19;19918;-63
2022/11/18 06:00:30;;;;;;;15.07;6.95;;;6.80;99.90;;;;;;7405603;19;19994;-63
2022/11/18 06:02:59;;;;;;;14.68;6.78;;;6.70;99.90;;;;;;7411023;19;19966;-63
2022/11/18 06:05:28;;;;;;;17.80;7.53;;;6.70;99.90;;;;;;7407040;19;19966;-63
2022/11/18 06:07:59;;;;;;;18.50;7.40;;;6.80;99.90;;;;;;7406874;19;19940;-63
2022/11/18 06:10:32;;;;;;;16.83;8.43;;;6.70;99.90;;;;;;7407418;19;19915;-63
2022/11/18 06:13:08;;;;;;;16.60;7.70;;;6.70;99.90;;;;;;7407240;19;20307;-63
2022/11/18 06:15:41;;;;;;;15.50;6.47;;;6.60;99.90;;;;;;7406187;19;19922;-62
2022/11/18 06:18:14;;;;;;;14.60;5.97;;;6.60;99.90;;;;;;7407116;19;20000;-63
2022/11/18 06:20:44;;;;;;;13.20;5.50;;;6.70;99.90;;;;;;7405564;19;19925;-63
2022/11/18 06:23:13;;;;;;;16.27;6.35;;;6.70;99.90;;;;;;7406865;19;20371;-62
2022/11/18 06:25:43;;;;;;;15.85;5.43;;;6.60;99.90;;;;;;7406046;19;19934;-63
2022/11/18 06:28:16;;;;;;;10.25;5.25;;;6.70;99.90;;;;;;7409330;19;19922;-63
2022/11/18 06:30:46;;;;;;;13.40;5.47;;;6.60;99.90;;;;;;7411343;19;19918;-63
2022/11/18 06:33:14;;;;;;;14.13;5.68;;;6.60;99.90;;;;;;7406393;19;19914;-63
2022/11/18 06:35:44;;;;;;;11.07;4.63;;;6.60;99.90;;;;;;7406580;19;19953;-62
2022/11/18 06:38:13;;;;;;;15.35;4.80;;;6.60;99.90;;;;;;7410034;19;19952;-63
2022/11/18 06:40:43;;;;;;;11.60;4.80;;;6.60;99.90;;;;;;7404155;19;20280;-63
2022/11/18 06:48:53;;;;;;;14.82;5.47;;;6.50;99.90;;;;;;7406608;19;19919;-63
2022/11/18 06:51:22;;;;;;;14.38;5.97;;;6.50;99.90;;;;;;7403874;19;19939;-63
2022/11/18 06:53:52;;;;;;;14.10;5.75;;;6.50;99.90;;;;;;7409116;19;19918;-62
2022/11/18 06:56:23;;;;;;;16.17;5.90;;;6.50;99.90;;;;;;7405879;19;20001;-63
2022/11/18 06:58:59;;;;;;;16.65;6.50;;;6.60;99.90;;;;;;7407405;19;19922;-63
2022/11/18 07:01:29;;;;;;;11.68;5.75;;;6.50;99.90;;;;;;7405018;19;19919;-63
2022/11/18 07:04:00;;;;;;;14.82;6.35;;;6.50;99.90;;;;;;7408452;19;20643;-73
2022/11/18 07:06:32;;;;;;;14.90;6.60;;;6.50;99.90;;;;;;7406523;19;20288;-73
2022/11/18 07:09:03;;;;;;;15.30;6.13;;;6.40;99.90;;;;;;7408622;19;20281;-72
2022/11/18 07:11:32;;;;;;;17.55;6.40;;;6.40;99.90;;;;;;7404546;19;19926;-72
2022/11/18 07:14:03;;;;;;;11.20;5.32;;;6.40;99.90;;;;;;7405796;19;19925;-74
2022/11/18 07:16:32;;;;;;;13.32;5.18;;;6.40;99.90;;;;;;7404276;19;20276;-63
2022/11/18 07:19:01;;;;;;;11.02;5.47;;;6.40;99.90;;;;;;7405190;19;19914;-63
2022/11/18 07:21:31;;;;;;;13.80;5.03;;;6.40;99.90;;;;;;7403957;19;20035;-63
2022/11/18 07:24:00;;;;;;;14.27;4.90;;;6.40;99.90;;;;;;7405474;19;19938;-63
2022/11/18 07:26:29;;;;;;;15.18;5.50;;;6.30;99.90;;;;;;7406561;19;19929;-63
2022/11/18 07:28:58;;;;;;;14.70;5.40;;;6.30;99.90;;;;;;7407097;19;19933;-63
2022/11/18 07:31:30;;;;;;;14.52;4.93;;;6.30;99.90;;;;;;7406199;19;19990;-63
2022/11/18 07:34:00;;;;;;;16.83;5.57;;;6.30;99.90;;;;;;7404662;19;19978;-63
2022/11/18 07:36:30;;;;;;;14.43;5.97;;;6.40;99.90;;;;;;7406645;19;20427;-63
2022/11/18 07:39:01;;;;;;;12.63;5.70;;;6.40;99.90;;;;;;7406467;19;19924;-63
2022/11/18 07:41:32;;;;;;;13.95;5.90;;;6.40;99.90;;;;;;7404952;19;19941;-63
2022/11/18 07:44:03;;;;;;;13.25;6.00;;;6.40;99.90;;;;;;7404537;19;19926;-63
2022/11/18 07:46:36;;;;;;;12.68;5.70;;;6.40;99.90;;;;;;7404550;19;19936;-63
2022/11/18 07:49:07;;;;;;;12.02;5.07;;;6.40;99.90;;;;;;7405824;19;19918;-63
2022/11/18 07:51:39;;;;;;;13.25;6.38;;;6.40;99.90;;;;;;7404758;19;19929;-63
2022/11/18 07:54:09;;;;;;;15.25;6.53;;;6.40;99.90;;;;;;7404252;19;19922;-63
2022/11/18 07:56:38;;;;;;;14.95;6.05;;;6.40;99.90;;;;;;7404070;19;19922;-63
2022/11/18 07:59:08;;;;;;;14.20;5.40;;;6.40;99.90;;;;;;7404717;19;19929;-63
2022/11/18 08:01:39;;;;;;;14.48;6.30;;;6.40;99.90;;;;;;7402388;19;19933;-63
2022/11/18 08:04:10;;;;;;;13.15;5.57;;;6.40;99.90;;;;;;7405452;19;20361;-63
2022/11/18 08:06:40;;;;;;;16.15;5.90;;;6.40;99.90;;;;;;7404299;19;19911;-63
2022/11/18 08:09:10;;;;;;;14.35;5.93;;;6.40;99.90;;;;;;7405916;19;20272;-63
2022/11/18 08:11:39;;;;;;;13.07;5.68;;;6.40;99.90;;;;;;7402076;19;19914;-63
2022/11/18 08:14:08;;;;;;;12.70;6.13;;;6.40;99.90;;;;;;7403764;19;19918;-63
2022/11/18 08:16:40;;;;;;;14.30;5.82;;;6.40;99.90;;;;;;7403246;19;19983;-63
2022/11/18 08:19:09;;;;;;;14.95;6.68;;;6.40;99.90;;;;;;7402592;19;19937;-65
2022/11/18 08:21:38;;;;;;;16.77;7.20;;;6.50;99.90;;;;;;7402921;19;19939;-64
2022/11/18 08:24:08;;;;;;;14.38;7.13;;;6.40;99.90;;;;;;7406375;19;19922;-65
2022/11/18 08:26:37;;;;;;;17.27;6.95;;;6.40;99.90;;;;;;7403308;19;19915;-64
2022/11/18 08:29:06;;;;;;;17.23;7.28;;;6.40;99.90;;;;;;7400457;19;20479;-65
2022/11/18 08:31:36;;;;;;;19.33;6.65;;;6.30;99.90;;;;;;7404882;19;19942;-64
2022/11/18 08:34:09;;;;;;;14.93;6.07;;;6.40;99.90;;;;;;7402923;19;19929;-62
2022/11/18 08:36:40;;;;;;;17.35;6.53;;;6.40;99.90;;;;;;7401896;19;20039;-62
2022/11/18 08:39:10;;;;;;;15.90;5.40;;;6.50;99.90;;;;;;7405366;19;19915;-65
2022/11/18 08:41:40;;;;;;;15.73;6.30;;;6.40;99.90;;;;;;7401614;19;19970;-64
2022/11/18 08:44:13;;;;;;;13.45;6.03;;;6.40;99.90;;;;;;7402411;19;20485;-62
2022/11/18 08:46:44;;;;;;;17.60;7.25;;;6.50;99.90;;;;;;7400742;19;19922;-64
2022/11/18 08:49:16;;;;;;;14.73;6.15;;;6.40;99.90;;;;;;7403515;19;19929;-65
2022/11/18 08:51:45;;;;;;;17.40;7.40;;;6.30;99.90;;;;;;7403807;19;19926;-65
2022/11/18 08:54:14;;;;;;;16.75;6.72;;;6.30;99.90;;;;;;7404332;19;19919;-64
2022/11/18 08:56:43;;;;;;;16.45;7.03;;;6.30;99.90;;;;;;7405531;19;19922;-64
2022/11/18 08:59:12;;;;;;;16.13;6.07;;;6.30;99.90;;;;;;7406107;19;19923;-64
2022/11/18 09:01:42;;;;;;;14.82;6.90;;;6.30;99.90;;;;;;7401149;19;19922;-62
2022/11/18 09:04:15;;;;;;;14.50;5.90;;;6.30;99.90;;;;;;7402314;19;19923;-64
2022/11/18 09:06:44;;;;;;;16.90;6.30;;;6.30;99.90;;;;;;7401510;19;20275;-63
2022/11/18 09:09:14;;;;;;;14.60;5.85;;;6.30;99.90;;;;;;7402236;19;19974;-63
2022/11/18 09:11:43;;;;;;;11.63;5.57;;;6.30;99.90;;;;;;7401936;19;19936;-62
2022/11/18 09:14:13;;;;;;;14.88;5.38;;;6.30;99.90;;;;;;7402090;19;19922;-62
2022/11/18 09:16:42;;;;;;;12.90;6.13;;;6.30;99.90;;;;;;7402575;19;19915;-62
2022/11/18 09:19:11;;;;;;;13.10;5.57;;;6.30;99.90;;;;;;7400289;19;19922;-62
2022/11/18 09:21:43;;;;;;;13.27;6.45;;;6.30;99.90;;;;;;7403713;19;19982;-62
2022/11/18 09:24:12;;;;;;;15.20;5.93;;;6.30;99.90;;;;;;7400655;19;20253;-62
2022/11/18 09:26:41;;;;;;;14.15;6.22;;;6.30;99.90;;;;;;7401154;19;20648;-63
2022/11/18 09:29:11;;;;;;;17.45;6.85;;;6.30;99.90;;;;;;7402091;19;20273;-64
2022/11/18 09:31:40;;;;;;;15.48;6.88;;;6.30;99.90;;;;;;7404084;19;20341;-64
2022/11/18 09:34:09;;;;;;;13.70;5.78;;;6.30;99.90;;;;;;7399261;19;20344;-64
2022/11/18 09:36:38;;;;;;;15.52;6.50;;;6.30;99.90;;;;;;7400454;19;19926;-63
2022/11/18 09:39:10;;;;;;;12.85;5.57;;;6.30;99.90;;;;;;7399836;19;19928;-64
2022/11/18 09:41:46;;;;;;;16.13;6.85;;;6.30;99.90;;;;;;7404178;19;19919;-64
2022/11/18 09:44:38;;;;;;;13.07;6.10;;;6.20;99.90;;;;;;7407915;19;19938;-63
2022/11/18 09:47:22;;;;;;;13.25;5.35;;;6.20;99.90;;;;;;7411051;19;19918;-64
2022/11/18 09:49:51;;;;;;;14.00;6.07;;;6.20;99.90;;;;;;7408207;19;19918;-63
2022/11/18 09:52:26;;;;;;;12.43;5.60;;;6.10;99.90;;;;;;7409005;19;20412;-63
2022/11/18 09:54:58;;;;;;;13.57;6.05;;;6.10;99.90;;;;;;7410084;19;20295;-63
2022/11/18 09:57:33;;;;;;;13.85;6.72;;;6.10;99.90;;;;;;7410629;19;19922;-64
2022/11/18 10:00:02;;;;;;;17.25;6.75;;;6.10;99.90;;;;;;7408244;19;19922;-63
2022/11/18 10:02:48;;;;;;;17.33;6.70;;;6.10;99.90;;;;;;7405014;19;19915;-63
2022/11/18 10:05:20;;;;;;;17.17;6.55;;;6.00;99.90;;;;;;7407482;19;19942;-63
2022/11/18 10:07:57;;;;;;;20.75;6.65;;;6.10;99.90;;;;;;7408543;19;19918;-63
2022/11/18 10:10:36;;;;;;;14.68;6.70;;;6.00;99.90;;;;;;7409443;19;19922;-63
2022/11/18 10:13:16;;;;;;;15.30;6.80;;;6.00;99.90;;;;;;7406540;19;19930;-63
2022/11/18 10:15:57;;;;;;;16.05;7.07;;;6.00;99.90;;;;;;7405584;19;19919;-63
2022/11/18 10:18:32;;;;;;;17.27;6.43;;;5.90;99.90;;;;;;7404759;19;19923;-63
2022/11/18 10:21:07;;;;;;;18.85;7.28;;;5.90;99.90;;;;;;7406934;19;20476;-63
2022/11/18 10:23:44;;;;;;;16.85;6.97;;;5.90;99.90;;;;;;7405830;19;19922;-63
2022/11/18 10:26:15;;;;;;;16.23;6.97;;;5.90;99.90;;;;;;7406330;19;19927;-64
2022/11/18 10:28:44;;;;;;;15.05;6.57;;;5.90;99.90;;;;;;7405686;19;20031;-63
2022/11/18 10:31:14;;;;;;;19.67;7.05;;;5.90;99.90;;;;;;7407089;19;19918;-64
2022/11/18 10:33:44;;;;;;;16.05;6.65;;;5.80;99.90;;;;;;7405361;19;20260;-63
2022/11/18 10:36:29;;;;;;;15.23;6.80;;;5.80;99.90;;;;;;7408964;19;20423;-65
2022/11/18 10:39:09;;;;;;;16.35;6.40;;;5.90;99.90;;;;;;7406379;19;19914;-63
2022/11/18 10:41:48;;;;;;;18.00;7.78;;;5.90;99.90;;;;;;7404903;19;19918;-63
2022/11/18 10:44:34;;;;;;;16.02;6.80;;;5.80;99.90;;;;;;7405501;19;19978;-63
2022/11/18 10:47:25;;;;;;;13.90;6.30;;;5.80;99.90;;;;;;7405380;19;19995;-63
2022/11/18 10:49:56;;;;;;;16.33;6.82;;;5.90;99.90;;;;;;7404779;19;19978;-63
2022/11/18 10:52:25;;;;;;;12.73;5.95;;;5.90;99.90;;;;;;7396313;19;19923;-63
2022/11/18 10:55:21;;;;;;;17.45;6.85;;;5.90;99.90;;;;;;7407182;19;19929;-63
2022/11/18 10:57:57;;;;;;;15.75;6.20;;;5.80;99.90;;;;;;7405943;19;19923;-63
2022/11/18 11:00:51;;;;;;;15.43;5.85;;;5.80;99.90;;;;;;7407098;19;19947;-63
2022/11/18 11:03:39;;;;;;;14.90;6.90;;;5.80;99.90;;;;;;7404875;19;19914;-63
2022/11/18 11:06:23;;;;;;;16.92;6.60;;;5.80;99.90;;;;;;7409914;19;20330;-63
2022/11/18 11:08:55;;;;;;;15.40;6.25;;;5.70;99.90;;;;;;7404634;19;19942;-64
2022/11/18 11:11:27;;;;;;;15.50;6.05;;;5.70;99.90;;;;;;7405843;19;19926;-63
2022/11/18 11:14:21;;;;;;;13.18;5.43;;;5.70;99.90;;;;;;7407260;19;19926;-64
2022/11/18 11:16:59;;;;;;;18.02;7.72;;;5.70;99.90;;;;;;7405858;19;19925;-63
2022/11/18 11:19:35;;;;;;;15.30;6.47;;;5.70;99.90;;;;;;7405738;19;19922;-63
2022/11/18 11:22:06;;;;;;;17.08;6.20;;;5.70;99.90;;;;;;7404820;19;20244;-63
2022/11/18 11:24:36;;;;;;;17.73;7.65;;;5.70;99.90;;;;;;7404521;19;19943;-63
2022/11/18 11:27:16;;;;;;;15.60;6.78;;;5.70;99.90;;;;;;7401840;19;19918;-63
2022/11/18 11:30:18;;;;;;;18.83;7.95;;;5.70;99.90;;;;;;7403915;19;20332;-63
2022/11/18 11:33:16;;;;;;;16.90;7.82;;;5.70;99.90;;;;;;7393115;19;19922;-64
2022/11/18 11:35:52;;;;;;;14.82;7.10;;;5.70;99.90;;;;;;7406045;19;19960;-65
2022/11/18 11:38:35;;;;;;;17.27;7.93;;;5.70;99.90;;;;;;7406162;19;19922;-64
2022/11/18 11:41:11;;;;;;;14.93;6.65;;;5.70;99.90;;;;;;7406515;19;19922;-64
2022/11/18 11:43:55;;;;;;;15.35;6.88;;;5.70;99.90;;;;;;7404669;19;19939;-79
2022/11/18 11:46:39;;;;;;;17.23;7.03;;;5.70;99.90;;;;;;7408866;19;19998;-79
2022/11/18 11:49:19;;;;;;;20.67;7.63;;;5.70;99.90;;;;;;7406087;19;20337;-75
2022/11/18 11:51:55;;;;;;;18.73;7.88;;;5.60;99.90;;;;;;7408605;19;20329;-76
2022/11/18 11:54:42;;;;;;;16.42;6.95;;;5.60;99.90;;;;;;7407589;19;19919;-76
2022/11/18 11:57:21;;;;;;;15.95;6.90;;;5.60;99.90;;;;;;7404692;19;20253;-64
2022/11/18 12:00:00;;;;;;;16.35;6.93;;;5.60;99.90;;;;;;7408912;19;19914;-68
2022/11/18 12:02:48;;;;;;;16.88;6.72;;;5.60;99.90;;;;;;7405202;19;19922;-68
2022/11/18 12:05:26;;;;;;;16.20;6.70;;;5.60;99.90;;;;;;7407132;19;19956;-67
2022/11/18 12:07:59;;;;;;;15.52;6.78;;;5.50;99.90;;;;;;7406327;19;19910;-68
2022/11/18 12:10:38;;;;;;;17.58;6.43;;;5.60;99.90;;;;;;7403860;19;19922;-68
2022/11/18 12:13:36;;;;;;;18.25;7.32;;;5.60;99.90;;;;;;7404871;19;19926;-68
2022/11/18 12:16:21;;;;;;;14.13;6.43;;;5.50;99.90;;;;;;7404072;19;19915;-67
2022/11/18 12:18:56;;;;;;;16.77;7.38;;;5.50;99.90;;;;;;7404380;19;19928;-65
2022/11/18 12:21:56;;;;;;;14.48;6.78;;;5.50;99.90;;;;;;7405161;19;19915;-65
2022/11/18 12:24:35;;;;;;;17.45;7.25;;;5.50;99.90;;;;;;7402929;19;19978;-65
2022/11/18 12:27:07;;;;;;;18.98;7.80;;;5.50;99.90;;;;;;7404551;19;19914;-65
2022/11/18 12:29:57;;;;;;;16.27;7.45;;;5.50;99.90;;;;;;7401404;19;19956;-65
2022/11/18 12:32:41;;;;;;;18.20;7.85;;;5.40;99.90;;;;;;7407263;19;20272;-65
2022/11/18 12:35:26;;;;;;;20.35;8.65;;;5.40;99.90;;;;;;7405382;19;19962;-65
2022/11/18 12:38:05;;;;;;;15.23;7.78;;;5.40;99.90;;;;;;7405964;19;19978;-64
2022/11/18 12:40:48;;;;;;;17.70;7.97;;;5.30;99.90;;;;;;7402456;19;19994;-64
2022/11/18 12:43:47;;;;;;;16.98;7.28;;;5.30;99.90;;;;;;7403351;19;19978;-65
2022/11/18 12:46:46;;;;;;;20.23;8.00;;;5.30;99.90;;;;;;7401459;19;19915;-65
2022/11/18 12:49:45;;;;;;;18.77;7.05;;;5.30;99.90;;;;;;7405407;19;20264;-64
2022/11/18 12:52:44;;;;;;;18.35;7.43;;;5.30;99.90;;;;;;7402533;19;19978;-66
2022/11/18 12:55:18;;;;;;;15.57;6.90;;;5.20;99.90;;;;;;7401810;19;20441;-65
2022/11/18 12:57:49;;;;;;;16.80;6.75;;;5.20;99.90;;;;;;7406179;19;19918;-64
2022/11/18 13:00:30;;;;;;;18.58;7.57;;;5.20;99.90;;;;;;7402222;19;19966;-64
2022/11/18 13:03:00;;;;;;;20.88;6.80;;;5.10;99.90;;;;;;7393205;19;20276;-65
2022/11/18 13:05:41;;;;;;;19.77;7.90;;;5.10;99.90;;;;;;7406409;19;19922;-67
2022/11/18 13:08:14;;;;;;;17.48;7.68;;;5.10;99.90;;;;;;7404863;19;20356;-82
2022/11/18 13:10:50;;;;;;;18.83;8.38;;;5.10;99.90;;;;;;7402564;19;19922;-83
2022/11/18 13:13:28;;;;;;;18.25;7.63;;;5.10;99.90;;;;;;7404231;19;20356;-82
2022/11/18 13:18:53;;;;;;;18.50;7.50;;;5.10;99.90;;;;;;7403859;19;19952;-84
2022/11/18 13:24:06;;;;;;;19.25;8.05;;;5.10;99.90;;;;;;7406979;19;19919;-86
2022/11/18 13:26:36;;;;;;;17.83;7.57;;;5.10;99.90;;;;;;7412001;19;20301;-86
2022/11/18 13:29:25;;;;;;;17.85;7.40;;;5.10;99.90;;;;;;7409740;19;20290;-82
2022/11/18 13:32:05;;;;;;;19.00;8.23;;;5.10;99.90;;;;;;7408967;19;19918;-65
2022/11/18 13:34:46;;;;;;;18.65;8.10;;;5.10;99.90;;;;;;7408570;19;19936;-65
2022/11/18 13:37:20;;;;;;;18.65;8.00;;;5.10;99.90;;;;;;7401687;19;20336;-65
2022/11/18 13:39:50;;;;;;;18.67;8.45;;;5.10;99.90;;;;;;7411702;19;19929;-79
2022/11/18 13:42:21;;;;;;;;;;;5.10;99.90;;;;;;7412020;19;19923;-81
2022/11/18 13:44:57;;;;;;;18.02;7.53;;;5.10;99.90;;;;;;7411403;19;20275;-80
2022/11/18 13:47:33;;;;;;;22.25;8.63;;;5.10;99.90;;;;;;7409670;19;20334;-80